createdAt,value
2019-05-06T00:03:06.293Z,99.90
2019-05-06T00:06:30.143Z,99.90
2019-05-06T00:09:54.059Z,99.90
2019-05-06T00:13:17.898Z,99.90
2019-05-06T00:16:43.872Z,99.90
2019-05-06T00:20:08.055Z,99.90
2019-05-06T00:23:37.782Z,99.90
2019-05-06T00:27:04.799Z,99.90
2019-05-06T00:30:28.767Z,99.90
2019-05-06T00:33:53.984Z,99.90
2019-05-06T00:37:18.175Z,99.90
2019-05-06T00:40:43.696Z,99.00
2019-05-06T00:44:07.608Z,99.10
2019-05-06T00:47:33.849Z,99.10
2019-05-06T00:50:56.912Z,98.90
2019-05-06T00:54:25.295Z,97.80
2019-05-06T00:57:49.120Z,96.20
2019-05-06T01:01:24.089Z,96.00
2019-05-06T01:04:38.380Z,95.30
2019-05-06T01:08:04.072Z,94.60
2019-05-06T01:11:28.077Z,95.10
2019-05-06T01:14:54.523Z,94.70
2019-05-06T01:18:18.716Z,94.90
2019-05-06T01:21:44.556Z,94.90
2019-05-06T01:25:08.192Z,94.50
2019-05-06T01:28:34.047Z,94.40
2019-05-06T01:31:57.618Z,94.80
2019-05-06T01:35:21.454Z,94.70
2019-05-06T01:39:04.281Z,94.50
2019-05-06T01:42:31.636Z,94.80
2019-05-06T01:45:55.450Z,95.30
2019-05-06T01:49:19.292Z,95.90
2019-05-06T01:52:44.308Z,94.60
2019-05-06T01:56:08.202Z,95.20
2019-05-06T01:59:34.086Z,95.00
2019-05-06T02:02:57.589Z,95.30
2019-05-06T02:06:21.472Z,95.60
2019-05-06T02:09:45.350Z,95.30
2019-05-06T02:13:09.230Z,95.10
2019-05-06T02:16:34.314Z,95.40
2019-05-06T02:19:58.533Z,94.40
2019-05-06T02:23:39.008Z,95.30
2019-05-06T02:27:04.512Z,95.10
2019-05-06T02:30:45.114Z,94.80
2019-05-06T02:34:09.109Z,94.50
2019-05-06T02:37:40.849Z,94.30
2019-05-06T02:41:05.043Z,94.70
2019-05-06T02:44:28.869Z,94.20
2019-05-06T02:48:09.476Z,94.10
2019-05-06T02:51:33.506Z,93.60
2019-05-06T02:54:57.182Z,94.00
2019-05-06T02:58:23.500Z,93.30
2019-05-06T03:01:46.454Z,93.80
2019-05-06T03:05:12.804Z,93.70
2019-05-06T03:08:35.961Z,94.20
2019-05-06T03:12:03.378Z,94.40
2019-05-06T03:15:25.211Z,94.60
2019-05-06T03:18:49.048Z,95.00
2019-05-06T03:22:14.531Z,95.50
2019-05-06T03:25:39.887Z,95.80
2019-05-06T03:29:03.831Z,95.20
2019-05-06T03:32:30.638Z,95.50
2019-05-06T03:36:06.503Z,94.90
2019-05-06T03:39:18.743Z,94.70
2019-05-06T03:42:42.792Z,94.40
2019-05-06T03:46:14.015Z,94.40
2019-05-06T03:49:38.390Z,93.80
2019-05-06T03:53:03.689Z,93.50
2019-05-06T03:56:28.192Z,93.80
2019-05-06T03:59:53.643Z,94.10
2019-05-06T04:03:17.392Z,93.20
2019-05-06T04:06:43.692Z,93.00
2019-05-06T04:10:08.309Z,93.20
2019-05-06T04:13:33.312Z,92.90
2019-05-06T04:16:59.144Z,92.50
2019-05-06T04:20:24.831Z,92.50
2019-05-06T04:23:53.191Z,92.10
2019-05-06T04:27:42.759Z,93.90
2019-05-06T04:31:06.315Z,92.80
2019-05-06T04:34:33.158Z,92.30
2019-05-06T04:37:56.951Z,92.20
2019-05-06T04:41:23.158Z,91.60
2019-05-06T04:44:46.557Z,91.30
2019-05-06T04:48:13.951Z,91.40
2019-05-06T04:51:37.202Z,91.70
2019-05-06T04:55:03.424Z,90.60
2019-05-06T04:58:26.737Z,89.40
2019-05-06T05:01:53.420Z,88.90
2019-05-06T05:05:17.152Z,88.10
2019-05-06T05:08:42.729Z,89.00
2019-05-06T05:12:13.191Z,88.60
2019-05-06T05:15:53.417Z,87.10
2019-05-06T05:19:17.651Z,86.80
2019-05-06T05:22:42.382Z,87.60
2019-05-06T05:26:06.296Z,85.80
2019-05-06T05:29:32.391Z,84.40
2019-05-06T05:32:55.926Z,85.40
2019-05-06T05:36:23.066Z,84.00
2019-05-06T05:39:46.337Z,83.70
2019-05-06T05:43:28.120Z,82.70
2019-05-06T05:46:52.537Z,83.60
2019-05-06T05:50:18.091Z,81.60
2019-05-06T05:53:42.595Z,83.60
2019-05-06T05:57:06.734Z,82.30
2019-05-06T06:00:32.469Z,82.10
2019-05-06T06:03:56.632Z,81.00
2019-05-06T06:07:22.510Z,80.40
2019-05-06T06:10:52.229Z,79.70
2019-05-06T06:14:33.805Z,79.60
2019-05-06T06:18:16.495Z,78.90
2019-05-06T06:21:42.778Z,79.60
2019-05-06T06:25:07.166Z,78.00
2019-05-06T06:28:33.162Z,77.20
2019-05-06T06:32:14.870Z,75.90
2019-05-06T06:35:43.378Z,75.20
2019-05-06T06:39:18.118Z,74.60
2019-05-06T06:42:42.726Z,74.60
2019-05-06T06:46:09.415Z,73.60
2019-05-06T06:49:32.870Z,72.80
2019-05-06T06:52:57.088Z,72.60
2019-05-06T06:56:32.973Z,71.50
2019-05-06T07:00:04.107Z,70.70
2019-05-06T07:03:29.849Z,69.40
2019-05-06T07:06:55.222Z,69.80
2019-05-06T07:10:37.248Z,66.70
2019-05-06T07:14:02.592Z,66.80
2019-05-06T07:17:26.750Z,64.00
2019-05-06T07:20:52.641Z,63.10
2019-05-06T07:24:16.593Z,63.30
2019-05-06T07:27:42.020Z,60.60
2019-05-06T07:31:18.824Z,60.40
2019-05-06T07:34:32.212Z,59.90
2019-05-06T07:37:56.286Z,60.00
2019-05-06T07:41:23.498Z,58.20
2019-05-06T07:44:48.990Z,56.50
2019-05-06T07:48:12.972Z,57.50
2019-05-06T07:51:36.915Z,57.70
2019-05-06T07:55:02.537Z,57.50
2019-05-06T07:58:26.313Z,56.40
2019-05-06T08:01:50.164Z,57.30
2019-05-06T08:05:13.987Z,57.00
2019-05-06T08:08:37.856Z,56.50
2019-05-06T08:12:02.826Z,55.30
2019-05-06T08:15:26.739Z,53.80
2019-05-06T08:18:52.391Z,52.60
2019-05-06T08:22:22.572Z,50.80
2019-05-06T08:25:47.744Z,51.20
2019-05-06T08:29:12.158Z,51.60
2019-05-06T08:32:36.555Z,51.70
2019-05-06T08:36:08.870Z,52.30
2019-05-06T08:39:27.263Z,52.40
2019-05-06T08:42:53.061Z,51.50
2019-05-06T08:46:16.659Z,50.80
2019-05-06T08:49:58.442Z,50.50
2019-05-06T08:53:24.304Z,51.30
2019-05-06T08:56:48.352Z,48.70
2019-05-06T09:00:12.826Z,49.40
2019-05-06T09:03:36.773Z,48.20
2019-05-06T09:07:02.767Z,48.70
2019-05-06T09:10:26.121Z,48.60
2019-05-06T09:13:51.990Z,48.00
2019-05-06T09:17:15.529Z,46.00
2019-05-06T09:20:38.452Z,43.60
2019-05-06T09:24:02.224Z,40.40
2019-05-06T09:27:33.338Z,37.60
2019-05-06T09:30:58.039Z,38.30
2019-05-06T09:34:23.380Z,36.50
2019-05-06T09:37:46.628Z,35.80
2019-05-06T09:41:09.594Z,36.40
2019-05-06T09:44:33.658Z,38.10
2019-05-06T09:48:04.859Z,35.30
2019-05-06T09:51:28.632Z,32.50
2019-05-06T09:54:54.060Z,34.50
2019-05-06T09:58:17.796Z,36.60
2019-05-06T10:01:43.697Z,37.80
2019-05-06T10:05:07.319Z,36.70
2019-05-06T10:08:32.304Z,37.20
2019-05-06T10:11:56.359Z,37.90
2019-05-06T10:15:21.856Z,37.20
2019-05-06T10:18:45.763Z,36.80
2019-05-06T10:22:09.648Z,38.80
2019-05-06T10:25:33.732Z,40.40
2019-05-06T10:28:59.229Z,41.60
2019-05-06T10:32:27.210Z,42.60
2019-05-06T10:35:53.020Z,43.80
2019-05-06T10:39:19.488Z,44.00
2019-05-06T10:42:49.188Z,45.20
2019-05-06T10:46:13.284Z,45.30
2019-05-06T10:49:37.098Z,46.10
2019-05-06T10:53:13.559Z,45.50
2019-05-06T10:56:52.451Z,46.30
2019-05-06T11:00:05.575Z,44.50
2019-05-06T11:03:30.161Z,44.90
2019-05-06T11:06:53.896Z,45.30
2019-05-06T11:10:27.026Z,44.50
2019-05-06T11:13:43.794Z,45.10
2019-05-06T11:17:07.720Z,44.00
2019-05-06T11:20:33.486Z,44.90
2019-05-06T11:23:57.097Z,43.00
2019-05-06T11:27:28.913Z,43.70
2019-05-06T11:31:02.209Z,44.50
2019-05-06T11:34:27.215Z,46.40
2019-05-06T11:37:58.501Z,45.70
2019-05-06T11:41:23.396Z,46.20
2019-05-06T11:44:47.383Z,45.00
2019-05-06T11:48:14.359Z,44.40
2019-05-06T11:51:36.823Z,43.70
2019-05-06T11:55:02.183Z,43.50
2019-05-06T11:58:42.446Z,42.90
2019-05-06T12:02:07.033Z,42.90
2019-05-06T12:05:32.897Z,43.70
2019-05-06T12:08:56.268Z,44.60
2019-05-06T12:12:20.074Z,42.50
2019-05-06T12:15:43.894Z,42.10
2019-05-06T12:19:07.640Z,43.40
2019-05-06T12:22:37.656Z,41.50
2019-05-06T12:26:02.476Z,41.50
2019-05-06T12:29:26.722Z,39.20
2019-05-06T12:33:04.200Z,39.80
2019-05-06T12:36:28.133Z,41.80
2019-05-06T12:39:54.067Z,43.70
2019-05-06T12:43:25.679Z,44.10
2019-05-06T12:46:53.012Z,45.40
2019-05-06T12:50:16.835Z,42.60
2019-05-06T12:53:42.759Z,43.40
2019-05-06T12:57:06.335Z,44.20
2019-05-06T13:00:32.097Z,45.10
2019-05-06T13:03:55.939Z,45.20
2019-05-06T13:07:24.123Z,44.30
2019-05-06T13:10:48.020Z,44.10
2019-05-06T13:14:12.702Z,45.00
2019-05-06T13:17:36.896Z,46.00
2019-05-06T13:21:06.346Z,46.80
2019-05-06T13:24:27.360Z,46.20
2019-05-06T13:27:52.763Z,47.20
2019-05-06T13:31:21.347Z,47.60
2019-05-06T13:34:42.537Z,48.00
2019-05-06T13:38:06.535Z,48.80
2019-05-06T13:41:32.569Z,48.20
2019-05-06T13:44:56.125Z,47.60
2019-05-06T13:48:24.243Z,48.50
2019-05-06T13:51:52.560Z,48.60
2019-05-06T13:55:16.611Z,48.60
2019-05-06T13:58:42.924Z,50.00
2019-05-06T14:02:08.337Z,48.80
2019-05-06T14:05:33.048Z,48.90
2019-05-06T14:08:57.177Z,48.80
2019-05-06T14:12:22.187Z,48.70
2019-05-06T14:15:46.219Z,48.50
2019-05-06T14:19:12.978Z,48.00
2019-05-06T14:22:36.003Z,47.00
2019-05-06T14:26:04.431Z,47.90
2019-05-06T14:29:33.201Z,48.30
2019-05-06T14:32:57.740Z,48.50
2019-05-06T14:36:22.881Z,49.60
2019-05-06T14:39:55.522Z,49.60
2019-05-06T14:43:14.401Z,49.30
2019-05-06T14:46:55.168Z,49.50
2019-05-06T14:50:30.742Z,48.50
2019-05-06T14:53:47.568Z,50.00
2019-05-06T14:57:13.269Z,49.40
2019-05-06T15:00:37.320Z,49.50
2019-05-06T15:04:01.203Z,50.70
2019-05-06T15:07:25.020Z,50.20
2019-05-06T15:10:49.567Z,50.40
2019-05-06T15:14:13.736Z,50.40
2019-05-06T15:17:37.889Z,50.70
2019-05-06T15:21:29.025Z,50.70
2019-05-06T15:24:27.928Z,51.70
2019-05-06T15:27:53.129Z,50.90
2019-05-06T15:31:35.226Z,50.80
2019-05-06T15:35:02.583Z,50.80
2019-05-06T15:38:28.203Z,50.70
2019-05-06T15:41:53.850Z,51.50
2019-05-06T15:45:18.309Z,52.30
2019-05-06T15:48:42.348Z,53.00
2019-05-06T15:52:06.595Z,53.40
2019-05-06T15:55:32.652Z,54.50
2019-05-06T15:58:56.492Z,55.70
2019-05-06T16:02:20.504Z,55.80
2019-05-06T16:05:44.501Z,56.30
2019-05-06T16:09:08.548Z,56.80
2019-05-06T16:12:32.712Z,56.30
2019-05-06T16:15:57.051Z,56.60
2019-05-06T16:19:22.879Z,56.40
2019-05-06T16:22:48.371Z,57.10
2019-05-06T16:26:12.406Z,57.50
2019-05-06T16:29:36.425Z,57.20
2019-05-06T16:33:00.249Z,57.20
2019-05-06T16:36:25.651Z,57.10
2019-05-06T16:39:49.520Z,57.50
2019-05-06T16:43:13.367Z,57.50
2019-05-06T16:46:37.362Z,57.70
2019-05-06T16:50:01.343Z,57.80
2019-05-06T16:53:25.217Z,58.70
2019-05-06T16:57:02.987Z,58.80
2019-05-06T17:00:28.444Z,59.50
2019-05-06T17:03:56.976Z,58.40
2019-05-06T17:07:22.197Z,58.40
2019-05-06T17:10:46.582Z,57.50
2019-05-06T17:14:12.300Z,58.50
2019-05-06T17:17:43.436Z,58.10
2019-05-06T17:21:02.081Z,58.80
2019-05-06T17:24:25.975Z,58.40
2019-05-06T17:27:52.634Z,59.20
2019-05-06T17:31:22.394Z,58.80
2019-05-06T17:34:48.397Z,59.40
2019-05-06T17:38:13.969Z,59.30
2019-05-06T17:41:45.953Z,59.90
2019-05-06T17:45:06.341Z,60.00
2019-05-06T17:48:49.521Z,59.90
2019-05-06T17:52:17.660Z,59.80
2019-05-06T17:55:43.272Z,59.90
2019-05-06T17:59:07.175Z,60.70
2019-05-06T18:02:32.624Z,60.40
2019-05-06T18:05:56.609Z,61.40
2019-05-06T18:09:22.311Z,61.20
2019-05-06T18:12:46.204Z,61.20
2019-05-06T18:16:09.997Z,61.50
2019-05-06T18:19:33.909Z,62.00
2019-05-06T18:22:58.260Z,62.60
2019-05-06T18:26:22.994Z,62.40
2019-05-06T18:29:46.991Z,62.70
2019-05-06T18:33:13.139Z,63.00
2019-05-06T18:36:37.674Z,63.50
2019-05-06T18:40:01.508Z,64.10
2019-05-06T18:43:26.282Z,64.30
2019-05-06T18:46:50.332Z,65.40
2019-05-06T18:50:14.725Z,64.90
2019-05-06T18:53:38.770Z,65.10
2019-05-06T18:57:04.904Z,65.50
2019-05-06T19:00:31.884Z,66.40
2019-05-06T19:04:03.255Z,66.10
2019-05-06T19:07:27.326Z,66.50
2019-05-06T19:10:53.236Z,66.30
2019-05-06T19:14:17.066Z,66.70
2019-05-06T19:17:44.069Z,67.40
2019-05-06T19:21:07.538Z,67.10
2019-05-06T19:24:33.488Z,68.20
2019-05-06T19:27:57.035Z,68.50
2019-05-06T19:31:22.817Z,69.20
2019-05-06T19:34:49.576Z,70.00
2019-05-06T19:38:13.546Z,71.10
2019-05-06T19:41:37.990Z,70.80
2019-05-06T19:45:02.519Z,71.30
2019-05-06T19:48:26.611Z,71.80
2019-05-06T19:51:52.243Z,72.00
2019-05-06T19:55:16.016Z,72.10
2019-05-06T19:58:40.103Z,72.00
2019-05-06T20:02:05.163Z,72.10
2019-05-06T20:05:39.716Z,72.20
2019-05-06T20:09:22.573Z,73.10
2019-05-06T20:13:01.656Z,72.80
2019-05-06T20:16:22.897Z,72.60
2019-05-06T20:19:46.904Z,72.60
2019-05-06T20:23:12.516Z,72.60
2019-05-06T20:26:37.236Z,73.10
2019-05-06T20:30:03.421Z,73.20
2019-05-06T20:33:27.264Z,73.40
2019-05-06T20:36:52.778Z,73.40
2019-05-06T20:40:17.689Z,73.50
2019-05-06T20:43:42.329Z,73.90
2019-05-06T20:47:06.764Z,74.10
2019-05-06T20:50:32.173Z,74.20
2019-05-06T20:53:56.385Z,74.50
2019-05-06T20:57:20.343Z,75.00
2019-05-06T21:00:44.551Z,75.10
2019-05-06T21:04:08.657Z,75.60
2019-05-06T21:07:32.688Z,75.20
2019-05-06T21:10:56.987Z,75.30
2019-05-06T21:14:22.674Z,75.50
2019-05-06T21:17:46.978Z,75.50
2019-05-06T21:21:13.006Z,76.30
2019-05-06T21:24:36.978Z,76.60
2019-05-06T21:28:02.813Z,76.50
2019-05-06T21:31:26.693Z,76.50
2019-05-06T21:34:52.484Z,76.50
2019-05-06T21:38:16.268Z,77.20
2019-05-06T21:41:42.458Z,76.30
2019-05-06T21:45:07.175Z,77.90
2019-05-06T21:48:33.555Z,77.90
2019-05-06T21:51:57.047Z,78.50
2019-05-06T21:55:22.673Z,78.60
2019-05-06T21:58:46.401Z,78.50
2019-05-06T22:02:12.076Z,79.20
2019-05-06T22:05:35.980Z,79.40
2019-05-06T22:08:59.810Z,79.90
2019-05-06T22:12:24.536Z,80.30
2019-05-06T22:15:48.735Z,80.50
2019-05-06T22:19:12.645Z,80.70
2019-05-06T22:22:38.047Z,80.90
2019-05-06T22:26:11.299Z,82.40
2019-05-06T22:29:27.831Z,82.30
2019-05-06T22:32:52.740Z,82.30
2019-05-06T22:36:16.715Z,83.00
2019-05-06T22:39:43.269Z,83.60
2019-05-06T22:43:06.134Z,84.90
2019-05-06T22:59:54.154Z,89.10
2019-05-06T23:03:19.707Z,90.50
2019-05-06T23:06:43.547Z,91.80
2019-05-06T23:10:08.158Z,92.00
2019-05-06T23:42:56.923Z,99.90
2019-05-06T23:46:56.902Z,99.90
2019-05-06T23:50:57.165Z,99.90
2019-05-06T23:54:57.512Z,99.90
2019-05-06T23:58:22.362Z,99.90
